sensor_id;sensor_type;location;lat;lon;timestamp;pressure;altitude;pressure_sealevel;temperature;humidity
29315;BME280;16320;53.954;9.506;2023-06-14T00:02:39;101586.63;;;14.30;100.00
29315;BME280;16320;53.954;9.506;2023-06-14T00:05:44;101578.53;;;14.33;100.00
29315;BME280;16320;53.954;9.506;2023-06-14T00:08:50;101580.47;;;14.29;100.00
29315;BME280;16320;53.954;9.506;2023-06-14T00:11:55;101587.56;;;14.29;100.00
29315;BME280;16320;53.954;9.506;2023-06-14T00:14:59;101588.47;;;14.28;100.00
29315;BME280;16320;53.954;9.506;2023-06-14T00:18:05;101595.81;;;14.23;100.00
29315;BME280;16320;53.954;9.506;2023-06-14T00:21:10;101597.59;;;14.22;100.00
29315;BME280;16320;53.954;9.506;2023-06-14T00:24:15;101596.91;;;14.19;100.00
29315;BME280;16320;53.954;9.506;2023-06-14T00:27:19;101606.59;;;14.18;100.00
29315;BME280;16320;53.954;9.506;2023-06-14T00:30:24;101604.41;;;14.10;100.00
29315;BME280;16320;53.954;9.506;2023-06-14T00:33:29;101603.88;;;14.04;100.00
29315;BME280;16320;53.954;9.506;2023-06-14T00:36:34;101611.00;;;14.02;100.00
29315;BME280;16320;53.954;9.506;2023-06-14T00:39:38;101607.66;;;13.98;100.00
29315;BME280;16320;53.954;9.506;2023-06-14T00:42:43;101614.59;;;14.01;100.00
29315;BME280;16320;53.954;9.506;2023-06-14T00:45:47;101606.66;;;14.01;100.00
29315;BME280;16320;53.954;9.506;2023-06-14T00:48:55;101618.06;;;14.01;100.00
29315;BME280;16320;53.954;9.506;2023-06-14T00:52:00;101620.72;;;14.01;100.00
29315;BME280;16320;53.954;9.506;2023-06-14T00:55:06;101621.03;;;13.95;100.00
29315;BME280;16320;53.954;9.506;2023-06-14T00:58:11;101621.72;;;13.99;100.00
29315;BME280;16320;53.954;9.506;2023-06-14T01:01:15;101625.22;;;13.99;100.00
29315;BME280;16320;53.954;9.506;2023-06-14T01:04:20;101619.34;;;13.94;100.00
29315;BME280;16320;53.954;9.506;2023-06-14T01:11:12;101633.78;;;13.87;100.00
29315;BME280;16320;53.954;9.506;2023-06-14T01:14:17;101631.34;;;13.82;100.00
29315;BME280;16320;53.954;9.506;2023-06-14T01:17:22;101642.16;;;13.78;100.00
29315;BME280;16320;53.954;9.506;2023-06-14T01:20:30;101640.63;;;13.73;100.00
29315;BME280;16320;53.954;9.506;2023-06-14T01:23:35;101643.25;;;13.73;100.00
29315;BME280;16320;53.954;9.506;2023-06-14T01:26:40;101640.75;;;13.70;100.00
29315;BME280;16320;53.954;9.506;2023-06-14T01:29:51;101641.88;;;13.66;100.00
29315;BME280;16320;53.954;9.506;2023-06-14T01:33:01;101637.88;;;13.58;100.00
29315;BME280;16320;53.954;9.506;2023-06-14T01:36:07;101636.16;;;13.57;100.00
29315;BME280;16320;53.954;9.506;2023-06-14T01:39:14;101639.22;;;13.49;100.00
29315;BME280;16320;53.954;9.506;2023-06-14T01:42:19;101641.03;;;13.47;100.00
29315;BME280;16320;53.954;9.506;2023-06-14T01:45:24;101634.28;;;13.41;100.00
29315;BME280;16320;53.954;9.506;2023-06-14T01:48:29;101642.63;;;13.32;100.00
29315;BME280;16320;53.954;9.506;2023-06-14T01:51:33;101647.91;;;13.32;100.00
29315;BME280;16320;53.954;9.506;2023-06-14T01:54:38;101648.81;;;13.32;100.00
29315;BME280;16320;53.954;9.506;2023-06-14T01:57:46;101647.19;;;13.28;100.00
29315;BME280;16320;53.954;9.506;2023-06-14T02:00:51;101655.03;;;13.30;100.00
29315;BME280;16320;53.954;9.506;2023-06-14T02:03:59;101649.84;;;13.28;100.00
29315;BME280;16320;53.954;9.506;2023-06-14T02:07:04;101643.78;;;13.26;100.00
29315;BME280;16320;53.954;9.506;2023-06-14T02:10:08;101646.63;;;13.22;100.00
29315;BME280;16320;53.954;9.506;2023-06-14T02:13:13;101646.63;;;13.22;100.00
29315;BME280;16320;53.954;9.506;2023-06-14T02:16:17;101652.75;;;13.22;100.00
29315;BME280;16320;53.954;9.506;2023-06-14T02:19:22;101653.78;;;13.19;100.00
29315;BME280;16320;53.954;9.506;2023-06-14T02:22:27;101662.63;;;13.18;100.00
29315;BME280;16320;53.954;9.506;2023-06-14T02:25:31;101652.06;;;13.18;100.00
29315;BME280;16320;53.954;9.506;2023-06-14T02:28:36;101664.34;;;13.19;100.00
29315;BME280;16320;53.954;9.506;2023-06-14T02:31:41;101661.63;;;13.21;100.00
29315;BME280;16320;53.954;9.506;2023-06-14T02:34:46;101664.25;;;13.21;100.00
29315;BME280;16320;53.954;9.506;2023-06-14T02:37:54;101670.16;;;13.26;100.00
29315;BME280;16320;53.954;9.506;2023-06-14T02:40:58;101663.31;;;13.22;100.00
29315;BME280;16320;53.954;9.506;2023-06-14T02:44:04;101663.63;;;13.16;100.00
29315;BME280;16320;53.954;9.506;2023-06-14T02:47:09;101661.91;;;13.15;100.00
29315;BME280;16320;53.954;9.506;2023-06-14T02:50:14;101664.47;;;13.16;100.00
29315;BME280;16320;53.954;9.506;2023-06-14T02:53:19;101662.97;;;13.11;100.00
29315;BME280;16320;53.954;9.506;2023-06-14T02:56:23;101667.47;;;13.09;100.00
29315;BME280;16320;53.954;9.506;2023-06-14T02:59:30;101667.41;;;13.10;100.00
29315;BME280;16320;53.954;9.506;2023-06-14T03:02:34;101677.03;;;13.11;100.00
29315;BME280;16320;53.954;9.506;2023-06-14T03:05:45;101677.09;;;13.10;100.00
29315;BME280;16320;53.954;9.506;2023-06-14T03:08:52;101678.03;;;13.09;100.00
29315;BME280;16320;53.954;9.506;2023-06-14T03:11:59;101672.75;;;13.09;100.00
29315;BME280;16320;53.954;9.506;2023-06-14T03:15:04;101683.44;;;13.06;100.00
29315;BME280;16320;53.954;9.506;2023-06-14T03:18:09;101682.59;;;13.05;100.00
29315;BME280;16320;53.954;9.506;2023-06-14T03:21:14;101688.84;;;13.03;100.00
29315;BME280;16320;53.954;9.506;2023-06-14T03:24:19;101691.34;;;13.06;100.00
29315;BME280;16320;53.954;9.506;2023-06-14T03:27:24;101695.72;;;13.07;100.00
29315;BME280;16320;53.954;9.506;2023-06-14T03:30:30;101689.56;;;13.06;100.00
29315;BME280;16320;53.954;9.506;2023-06-14T03:33:35;101694.13;;;13.03;100.00
29315;BME280;16320;53.954;9.506;2023-06-14T03:36:39;101693.13;;;13.05;100.00
29315;BME280;16320;53.954;9.506;2023-06-14T03:39:44;101706.25;;;13.07;100.00
29315;BME280;16320;53.954;9.506;2023-06-14T03:42:50;101707.09;;;13.07;100.00
29315;BME280;16320;53.954;9.506;2023-06-14T03:45:54;101716.94;;;13.04;100.00
29315;BME280;16320;53.954;9.506;2023-06-14T03:48:59;101725.63;;;13.06;100.00
29315;BME280;16320;53.954;9.506;2023-06-14T03:52:04;101717.72;;;13.06;100.00
29315;BME280;16320;53.954;9.506;2023-06-14T03:55:09;101717.44;;;13.12;100.00
29315;BME280;16320;53.954;9.506;2023-06-14T03:58:18;101724.50;;;13.11;100.00
29315;BME280;16320;53.954;9.506;2023-06-14T04:01:23;101728.78;;;13.14;100.00
29315;BME280;16320;53.954;9.506;2023-06-14T04:04:31;101738.34;;;13.16;100.00
29315;BME280;16320;53.954;9.506;2023-06-14T04:07:36;101743.63;;;13.16;100.00
29315;BME280;16320;53.954;9.506;2023-06-14T04:10:48;101736.41;;;13.20;100.00
29315;BME280;16320;53.954;9.506;2023-06-14T04:13:52;101743.34;;;13.23;100.00
29315;BME280;16320;53.954;9.506;2023-06-14T04:16:58;101750.94;;;13.29;100.00
29315;BME280;16320;53.954;9.506;2023-06-14T04:20:03;101750.75;;;13.33;100.00
29315;BME280;16320;53.954;9.506;2023-06-14T04:23:17;101755.75;;;13.40;100.00
29315;BME280;16320;53.954;9.506;2023-06-14T04:26:25;101759.03;;;13.45;100.00
29315;BME280;16320;53.954;9.506;2023-06-14T04:29:34;101767.72;;;13.47;100.00
29315;BME280;16320;53.954;9.506;2023-06-14T04:32:39;101765.88;;;13.49;100.00
29315;BME280;16320;53.954;9.506;2023-06-14T04:35:43;101766.44;;;13.55;100.00
29315;BME280;16320;53.954;9.506;2023-06-14T04:38:51;101767.00;;;13.62;100.00
29315;BME280;16320;53.954;9.506;2023-06-14T04:41:58;101770.13;;;13.70;100.00
29315;BME280;16320;53.954;9.506;2023-06-14T04:45:06;101774.44;;;13.73;100.00
29315;BME280;16320;53.954;9.506;2023-06-14T04:48:11;101778.53;;;13.79;100.00
29315;BME280;16320;53.954;9.506;2023-06-14T04:51:16;101774.69;;;13.86;100.00
29315;BME280;16320;53.954;9.506;2023-06-14T04:54:24;101772.66;;;13.91;100.00
29315;BME280;16320;53.954;9.506;2023-06-14T04:57:31;101780.28;;;13.97;100.00
29315;BME280;16320;53.954;9.506;2023-06-14T05:00:35;101777.34;;;14.03;100.00
29315;BME280;16320;53.954;9.506;2023-06-14T05:03:39;101781.19;;;14.15;100.00
29315;BME280;16320;53.954;9.506;2023-06-14T05:06:45;101792.13;;;14.25;100.00
29315;BME280;16320;53.954;9.506;2023-06-14T05:09:52;101792.53;;;14.35;100.00
29315;BME280;16320;53.954;9.506;2023-06-14T05:12:56;101796.63;;;14.40;100.00
29315;BME280;16320;53.954;9.506;2023-06-14T05:16:01;101806.91;;;14.46;100.00
29315;BME280;16320;53.954;9.506;2023-06-14T05:19:05;101806.59;;;14.53;100.00
29315;BME280;16320;53.954;9.506;2023-06-14T05:22:09;101808.13;;;14.57;100.00
29315;BME280;16320;53.954;9.506;2023-06-14T05:25:13;101813.84;;;14.67;100.00
29315;BME280;16320;53.954;9.506;2023-06-14T05:28:18;101815.78;;;14.80;100.00
29315;BME280;16320;53.954;9.506;2023-06-14T05:31:24;101811.72;;;14.91;100.00
29315;BME280;16320;53.954;9.506;2023-06-14T05:34:30;101816.38;;;15.03;100.00
29315;BME280;16320;53.954;9.506;2023-06-14T05:37:34;101811.34;;;15.14;100.00
29315;BME280;16320;53.954;9.506;2023-06-14T05:40:39;101807.34;;;15.23;100.00
29315;BME280;16320;53.954;9.506;2023-06-14T05:43:43;101816.31;;;15.36;100.00
29315;BME280;16320;53.954;9.506;2023-06-14T05:46:48;101813.94;;;15.48;100.00
29315;BME280;16320;53.954;9.506;2023-06-14T05:49:52;101816.00;;;15.59;100.00
29315;BME280;16320;53.954;9.506;2023-06-14T05:52:57;101819.84;;;15.69;100.00
29315;BME280;16320;53.954;9.506;2023-06-14T05:56:01;101813.91;;;15.81;100.00
29315;BME280;16320;53.954;9.506;2023-06-14T05:59:06;101813.34;;;15.90;100.00
29315;BME280;16320;53.954;9.506;2023-06-14T06:02:10;101823.63;;;15.97;100.00
29315;BME280;16320;53.954;9.506;2023-06-14T06:05:14;101822.25;;;16.05;100.00
29315;BME280;16320;53.954;9.506;2023-06-14T06:08:22;101818.19;;;16.14;100.00
29315;BME280;16320;53.954;9.506;2023-06-14T06:11:26;101811.59;;;16.21;100.00
29315;BME280;16320;53.954;9.506;2023-06-14T06:14:37;101814.47;;;16.33;100.00
29315;BME280;16320;53.954;9.506;2023-06-14T06:17:42;101802.75;;;16.37;100.00
29315;BME280;16320;53.954;9.506;2023-06-14T06:21:00;101795.94;;;16.47;100.00
29315;BME280;16320;53.954;9.506;2023-06-14T06:24:05;101798.25;;;16.53;100.00
29315;BME280;16320;53.954;9.506;2023-06-14T06:27:10;101804.88;;;16.60;100.00
29315;BME280;16320;53.954;9.506;2023-06-14T06:30:16;101803.56;;;16.68;100.00
29315;BME280;16320;53.954;9.506;2023-06-14T06:33:21;101801.69;;;16.70;100.00
29315;BME280;16320;53.954;9.506;2023-06-14T06:36:25;101799.13;;;16.82;100.00
29315;BME280;16320;53.954;9.506;2023-06-14T06:39:30;101798.53;;;16.93;100.00
29315;BME280;16320;53.954;9.506;2023-06-14T06:42:34;101789.97;;;17.02;100.00
29315;BME280;16320;53.954;9.506;2023-06-14T06:45:39;101792.25;;;17.09;100.00
29315;BME280;16320;53.954;9.506;2023-06-14T06:48:44;101808.00;;;17.12;100.00
29315;BME280;16320;53.954;9.506;2023-06-14T06:52:02;101802.13;;;17.21;100.00
29315;BME280;16320;53.954;9.506;2023-06-14T06:55:08;101804.28;;;17.29;100.00
29315;BME280;16320;53.954;9.506;2023-06-14T06:58:14;101803.22;;;17.31;100.00
29315;BME280;16320;53.954;9.506;2023-06-14T07:01:18;101806.06;;;17.43;100.00
29315;BME280;16320;53.954;9.506;2023-06-14T07:04:25;101802.47;;;17.44;100.00
29315;BME280;16320;53.954;9.506;2023-06-14T07:07:30;101800.81;;;17.55;100.00
29315;BME280;16320;53.954;9.506;2023-06-14T07:10:34;101786.66;;;17.69;100.00
29315;BME280;16320;53.954;9.506;2023-06-14T07:13:38;101785.19;;;17.78;100.00
29315;BME280;16320;53.954;9.506;2023-06-14T07:16:42;101781.06;;;17.87;100.00
29315;BME280;16320;53.954;9.506;2023-06-14T07:19:47;101782.81;;;17.88;100.00
29315;BME280;16320;53.954;9.506;2023-06-14T07:22:51;101774.78;;;18.02;100.00
29315;BME280;16320;53.954;9.506;2023-06-14T07:25:56;101772.78;;;18.06;100.00
29315;BME280;16320;53.954;9.506;2023-06-14T07:29:01;101776.59;;;18.15;100.00
29315;BME280;16320;53.954;9.506;2023-06-14T07:32:07;101770.16;;;18.32;100.00
29315;BME280;16320;53.954;9.506;2023-06-14T07:35:11;101768.16;;;18.35;100.00
29315;BME280;16320;53.954;9.506;2023-06-14T07:38:15;101769.09;;;18.34;100.00
29315;BME280;16320;53.954;9.506;2023-06-14T07:41:19;101762.41;;;18.41;100.00
29315;BME280;16320;53.954;9.506;2023-06-14T07:44:26;101767.63;;;18.43;100.00
29315;BME280;16320;53.954;9.506;2023-06-14T07:47:30;101756.22;;;18.54;100.00
29315;BME280;16320;53.954;9.506;2023-06-14T07:50:35;101764.44;;;18.63;100.00
29315;BME280;16320;53.954;9.506;2023-06-14T07:53:39;101754.44;;;18.67;100.00
29315;BME280;16320;53.954;9.506;2023-06-14T07:56:45;101740.47;;;18.76;100.00
29315;BME280;16320;53.954;9.506;2023-06-14T07:59:50;101754.44;;;18.80;100.00
29315;BME280;16320;53.954;9.506;2023-06-14T08:02:54;101741.97;;;18.80;100.00
29315;BME280;16320;53.954;9.506;2023-06-14T08:06:06;101738.78;;;19.01;100.00
29315;BME280;16320;53.954;9.506;2023-06-14T08:09:12;101739.50;;;19.16;100.00
29315;BME280;16320;53.954;9.506;2023-06-14T08:12:17;101745.00;;;19.26;100.00
29315;BME280;16320;53.954;9.506;2023-06-14T08:15:21;101750.84;;;19.31;100.00
29315;BME280;16320;53.954;9.506;2023-06-14T08:18:26;101742.72;;;19.45;100.00
29315;BME280;16320;53.954;9.506;2023-06-14T08:21:30;101744.88;;;19.40;100.00
29315;BME280;16320;53.954;9.506;2023-06-14T08:24:38;101739.59;;;19.51;100.00
29315;BME280;16320;53.954;9.506;2023-06-14T08:27:43;101736.19;;;19.49;100.00
29315;BME280;16320;53.954;9.506;2023-06-14T08:30:48;101740.56;;;19.50;100.00
29315;BME280;16320;53.954;9.506;2023-06-14T08:33:53;101736.69;;;19.54;100.00
29315;BME280;16320;53.954;9.506;2023-06-14T08:36:58;101730.34;;;19.68;100.00
29315;BME280;16320;53.954;9.506;2023-06-14T08:40:02;101726.63;;;19.71;100.00
29315;BME280;16320;53.954;9.506;2023-06-14T08:43:10;101738.00;;;19.73;100.00
29315;BME280;16320;53.954;9.506;2023-06-14T08:46:15;101734.03;;;19.79;100.00
29315;BME280;16320;53.954;9.506;2023-06-14T08:49:25;101721.25;;;19.95;100.00
29315;BME280;16320;53.954;9.506;2023-06-14T08:52:35;101732.44;;;20.00;100.00
29315;BME280;16320;53.954;9.506;2023-06-14T08:55:44;101719.53;;;20.18;100.00
29315;BME280;16320;53.954;9.506;2023-06-14T08:58:49;101720.16;;;20.33;100.00
29315;BME280;16320;53.954;9.506;2023-06-14T09:01:54;101727.44;;;20.31;100.00
29315;BME280;16320;53.954;9.506;2023-06-14T09:05:16;101725.38;;;20.35;100.00
29315;BME280;16320;53.954;9.506;2023-06-14T09:08:22;101724.78;;;20.42;100.00
29315;BME280;16320;53.954;9.506;2023-06-14T09:11:27;101721.13;;;20.32;100.00
29315;BME280;16320;53.954;9.506;2023-06-14T09:14:33;101722.94;;;20.32;100.00
29315;BME280;16320;53.954;9.506;2023-06-14T09:17:43;101729.47;;;20.27;100.00
29315;BME280;16320;53.954;9.506;2023-06-14T09:20:48;101727.56;;;20.41;100.00
29315;BME280;16320;53.954;9.506;2023-06-14T09:23:52;101729.75;;;20.47;100.00
29315;BME280;16320;53.954;9.506;2023-06-14T09:26:58;101731.66;;;20.34;100.00
29315;BME280;16320;53.954;9.506;2023-06-14T09:30:03;101726.69;;;20.29;100.00
29315;BME280;16320;53.954;9.506;2023-06-14T09:33:08;101724.91;;;20.41;100.00
29315;BME280;16320;53.954;9.506;2023-06-14T09:36:16;101718.63;;;20.64;100.00
29315;BME280;16320;53.954;9.506;2023-06-14T09:39:21;101722.28;;;20.75;100.00
29315;BME280;16320;53.954;9.506;2023-06-14T09:42:26;101732.47;;;20.70;100.00
29315;BME280;16320;53.954;9.506;2023-06-14T09:45:31;101713.06;;;20.79;100.00
29315;BME280;16320;53.954;9.506;2023-06-14T09:48:35;101713.63;;;21.05;100.00
29315;BME280;16320;53.954;9.506;2023-06-14T09:51:45;101715.09;;;21.20;100.00
29315;BME280;16320;53.954;9.506;2023-06-14T09:54:53;101713.69;;;21.37;100.00
29315;BME280;16320;53.954;9.506;2023-06-14T09:58:00;101705.69;;;21.26;100.00
29315;BME280;16320;53.954;9.506;2023-06-14T10:01:09;101705.69;;;21.26;100.00
29315;BME280;16320;53.954;9.506;2023-06-14T10:04:15;101707.41;;;21.27;100.00
29315;BME280;16320;53.954;9.506;2023-06-14T10:07:21;101706.72;;;21.14;100.00
29315;BME280;16320;53.954;9.506;2023-06-14T10:10:26;101715.69;;;21.13;100.00
29315;BME280;16320;53.954;9.506;2023-06-14T10:13:32;101704.56;;;20.96;100.00
29315;BME280;16320;53.954;9.506;2023-06-14T10:17:03;101714.88;;;20.78;100.00
29315;BME280;16320;53.954;9.506;2023-06-14T10:20:50;101719.94;;;20.59;100.00
29315;BME280;16320;53.954;9.506;2023-06-14T10:23:56;101724.16;;;20.50;100.00
29315;BME280;16320;53.954;9.506;2023-06-14T10:27:07;101719.69;;;20.39;100.00
29315;BME280;16320;53.954;9.506;2023-06-14T10:30:15;101712.88;;;20.46;100.00
29315;BME280;16320;53.954;9.506;2023-06-14T10:33:20;101718.22;;;20.46;100.00
29315;BME280;16320;53.954;9.506;2023-06-14T10:39:41;101701.53;;;20.67;100.00
29315;BME280;16320;53.954;9.506;2023-06-14T10:42:53;101706.53;;;20.72;100.00
29315;BME280;16320;53.954;9.506;2023-06-14T10:46:19;101719.59;;;20.52;100.00
29315;BME280;16320;53.954;9.506;2023-06-14T10:49:45;101712.78;;;20.59;100.00
29315;BME280;16320;53.954;9.506;2023-06-14T10:52:53;101694.75;;;21.29;100.00
29315;BME280;16320;53.954;9.506;2023-06-14T10:56:06;101690.19;;;21.85;100.00
29315;BME280;16320;53.954;9.506;2023-06-14T10:59:11;101694.00;;;22.03;100.00
29315;BME280;16320;53.954;9.506;2023-06-14T11:05:28;101680.94;;;23.02;100.00
29315;BME280;16320;53.954;9.506;2023-06-14T11:12:37;101678.78;;;23.86;100.00
29315;BME280;16320;53.954;9.506;2023-06-14T11:15:45;101669.16;;;23.83;100.00
29315;BME280;16320;53.954;9.506;2023-06-14T11:18:57;101665.47;;;24.04;100.00
29315;BME280;16320;53.954;9.506;2023-06-14T11:22:01;101672.41;;;24.44;100.00
29315;BME280;16320;53.954;9.506;2023-06-14T11:25:09;101663.00;;;24.67;100.00
29315;BME280;16320;53.954;9.506;2023-06-14T11:28:14;101656.00;;;24.84;100.00
29315;BME280;16320;53.954;9.506;2023-06-14T11:31:20;101668.09;;;24.23;100.00
29315;BME280;16320;53.954;9.506;2023-06-14T11:34:25;101649.69;;;23.52;100.00
29315;BME280;16320;53.954;9.506;2023-06-14T11:37:29;101650.38;;;23.83;100.00
29315;BME280;16320;53.954;9.506;2023-06-14T11:40:34;101643.91;;;24.33;100.00
29315;BME280;16320;53.954;9.506;2023-06-14T11:43:42;101650.16;;;24.14;100.00
29315;BME280;16320;53.954;9.506;2023-06-14T11:46:46;101643.19;;;23.74;100.00
29315;BME280;16320;53.954;9.506;2023-06-14T11:49:51;101648.41;;;23.95;100.00
29315;BME280;16320;53.954;9.506;2023-06-14T11:52:58;101644.47;;;24.27;100.00
29315;BME280;16320;53.954;9.506;2023-06-14T11:56:07;101644.63;;;24.63;100.00
29315;BME280;16320;53.954;9.506;2023-06-14T11:59:13;101645.38;;;24.83;100.00
29315;BME280;16320;53.954;9.506;2023-06-14T12:02:21;101634.81;;;24.99;100.00
29315;BME280;16320;53.954;9.506;2023-06-14T12:05:28;101634.38;;;25.22;100.00
29315;BME280;16320;53.954;9.506;2023-06-14T12:08:38;101632.31;;;25.34;100.00
29315;BME280;16320;53.954;9.506;2023-06-14T12:11:45;101629.28;;;25.19;100.00
29315;BME280;16320;53.954;9.506;2023-06-14T12:14:52;101633.91;;;25.09;100.00
29315;BME280;16320;53.954;9.506;2023-06-14T12:17:58;101637.59;;;24.52;100.00
29315;BME280;16320;53.954;9.506;2023-06-14T12:21:07;101641.19;;;23.96;100.00
29315;BME280;16320;53.954;9.506;2023-06-14T12:24:34;101631.88;;;23.61;100.00
29315;BME280;16320;53.954;9.506;2023-06-14T12:28:06;101632.03;;;23.88;100.00
29315;BME280;16320;53.954;9.506;2023-06-14T12:31:13;101625.06;;;24.43;100.00
29315;BME280;16320;53.954;9.506;2023-06-14T12:34:18;101617.91;;;24.61;100.00
29315;BME280;16320;53.954;9.506;2023-06-14T12:37:23;101609.16;;;24.87;100.00
29315;BME280;16320;53.954;9.506;2023-06-14T12:40:32;101610.94;;;25.14;100.00
29315;BME280;16320;53.954;9.506;2023-06-14T12:43:39;101603.47;;;25.26;100.00
29315;BME280;16320;53.954;9.506;2023-06-14T12:46:46;101608.28;;;25.32;100.00
29315;BME280;16320;53.954;9.506;2023-06-14T12:49:51;101611.69;;;25.43;100.00
29315;BME280;16320;53.954;9.506;2023-06-14T12:52:55;101610.72;;;25.44;100.00
29315;BME280;16320;53.954;9.506;2023-06-14T12:56:00;101613.13;;;25.29;100.00
29315;BME280;16320;53.954;9.506;2023-06-14T12:59:05;101613.47;;;25.16;100.00
29315;BME280;16320;53.954;9.506;2023-06-14T13:02:16;101610.31;;;25.02;100.00
29315;BME280;16320;53.954;9.506;2023-06-14T13:05:21;101610.16;;;24.86;100.00
29315;BME280;16320;53.954;9.506;2023-06-14T13:08:25;101600.44;;;24.47;100.00
29315;BME280;16320;53.954;9.506;2023-06-14T13:11:30;101609.94;;;24.42;100.00
29315;BME280;16320;53.954;9.506;2023-06-14T13:14:35;101607.44;;;24.30;100.00
29315;BME280;16320;53.954;9.506;2023-06-14T13:17:39;101608.38;;;24.11;100.00
29315;BME280;16320;53.954;9.506;2023-06-14T13:20:53;101594.81;;;24.13;100.00
29315;BME280;16320;53.954;9.506;2023-06-14T13:23:58;101602.19;;;24.01;100.00
29315;BME280;16320;53.954;9.506;2023-06-14T13:27:03;101601.66;;;23.78;100.00
29315;BME280;16320;53.954;9.506;2023-06-14T13:30:10;101605.75;;;23.82;100.00
29315;BME280;16320;53.954;9.506;2023-06-14T13:33:15;101611.56;;;23.68;100.00
29315;BME280;16320;53.954;9.506;2023-06-14T13:36:19;101607.50;;;23.25;100.00
29315;BME280;16320;53.954;9.506;2023-06-14T13:39:24;101607.22;;;23.08;100.00
29315;BME280;16320;53.954;9.506;2023-06-14T13:42:29;101598.44;;;23.06;100.00
29315;BME280;16320;53.954;9.506;2023-06-14T13:45:36;101597.59;;;22.96;100.00
29315;BME280;16320;53.954;9.506;2023-06-14T13:48:59;101594.34;;;23.02;100.00
29315;BME280;16320;53.954;9.506;2023-06-14T13:52:24;101592.56;;;23.12;100.00
29315;BME280;16320;53.954;9.506;2023-06-14T13:55:46;101596.91;;;23.23;100.00
29315;BME280;16320;53.954;9.506;2023-06-14T13:59:09;101598.06;;;23.20;100.00
29315;BME280;16320;53.954;9.506;2023-06-14T14:02:33;101592.28;;;23.15;100.00
29315;BME280;16320;53.954;9.506;2023-06-14T14:05:55;101594.66;;;23.18;100.00
29315;BME280;16320;53.954;9.506;2023-06-14T14:09:18;101592.69;;;23.20;100.00
29315;BME280;16320;53.954;9.506;2023-06-14T14:12:41;101590.16;;;23.19;100.00
29315;BME280;16320;53.954;9.506;2023-06-14T14:16:05;101599.19;;;23.08;100.00
29315;BME280;16320;53.954;9.506;2023-06-14T14:19:31;101591.78;;;22.91;100.00
29315;BME280;16320;53.954;9.506;2023-06-14T14:22:53;101589.66;;;22.65;100.00
29315;BME280;16320;53.954;9.506;2023-06-14T14:26:16;101581.59;;;22.55;100.00
29315;BME280;16320;53.954;9.506;2023-06-14T14:29:38;101581.00;;;22.52;100.00
29315;BME280;16320;53.954;9.506;2023-06-14T14:32:43;101577.41;;;22.72;100.00
29315;BME280;16320;53.954;9.506;2023-06-14T14:35:49;101575.66;;;22.61;100.00
29315;BME280;16320;53.954;9.506;2023-06-14T14:38:57;101589.59;;;22.45;100.00
29315;BME280;16320;53.954;9.506;2023-06-14T14:42:14;101585.44;;;22.32;100.00
29315;BME280;16320;53.954;9.506;2023-06-14T14:45:56;101582.13;;;22.18;100.00
29315;BME280;16320;53.954;9.506;2023-06-14T14:49:50;101592.44;;;22.23;100.00
29315;BME280;16320;53.954;9.506;2023-06-14T14:53:50;101580.34;;;22.28;100.00
29315;BME280;16320;53.954;9.506;2023-06-14T14:57:11;101585.50;;;22.41;100.00
29315;BME280;16320;53.954;9.506;2023-06-14T15:00:20;101583.78;;;22.40;100.00
29315;BME280;16320;53.954;9.506;2023-06-14T15:03:37;101574.53;;;22.54;100.00
29315;BME280;16320;53.954;9.506;2023-06-14T15:07:41;101580.19;;;22.61;100.00
29315;BME280;16320;53.954;9.506;2023-06-14T15:10:52;101578.63;;;22.68;100.00
29315;BME280;16320;53.954;9.506;2023-06-14T15:13:56;101584.69;;;22.51;100.00
29315;BME280;16320;53.954;9.506;2023-06-14T15:17:09;101593.84;;;22.27;100.00
29315;BME280;16320;53.954;9.506;2023-06-14T15:20:24;101586.25;;;22.01;100.00
29315;BME280;16320;53.954;9.506;2023-06-14T15:23:38;101589.16;;;21.88;100.00
29315;BME280;16320;53.954;9.506;2023-06-14T15:26:45;101586.59;;;21.87;100.00
29315;BME280;16320;53.954;9.506;2023-06-14T15:29:54;101581.56;;;21.84;100.00
29315;BME280;16320;53.954;9.506;2023-06-14T15:33:04;101571.69;;;21.84;100.00
29315;BME280;16320;53.954;9.506;2023-06-14T15:40:20;101573.75;;;22.02;100.00
29315;BME280;16320;53.954;9.506;2023-06-14T15:43:53;101570.69;;;22.06;100.00
29315;BME280;16320;53.954;9.506;2023-06-14T15:46:58;101572.88;;;22.01;100.00
29315;BME280;16320;53.954;9.506;2023-06-14T15:50:42;101564.22;;;22.09;100.00
29315;BME280;16320;53.954;9.506;2023-06-14T15:54:00;101574.69;;;22.22;100.00
29315;BME280;16320;53.954;9.506;2023-06-14T15:57:12;101566.47;;;22.13;100.00
29315;BME280;16320;53.954;9.506;2023-06-14T16:00:42;101570.38;;;22.09;100.00
29315;BME280;16320;53.954;9.506;2023-06-14T16:03:53;101575.75;;;22.09;100.00
29315;BME280;16320;53.954;9.506;2023-06-14T16:07:05;101579.38;;;21.99;100.00
29315;BME280;16320;53.954;9.506;2023-06-14T16:10:18;101572.88;;;22.01;100.00
29315;BME280;16320;53.954;9.506;2023-06-14T16:13:57;101568.38;;;21.92;100.00
29315;BME280;16320;53.954;9.506;2023-06-14T16:17:19;101565.56;;;21.93;100.00
29315;BME280;16320;53.954;9.506;2023-06-14T16:20:59;101562.69;;;21.85;100.00
29315;BME280;16320;53.954;9.506;2023-06-14T16:24:37;101558.19;;;21.86;100.00
29315;BME280;16320;53.954;9.506;2023-06-14T16:32:59;101565.38;;;22.16;100.00
29315;BME280;16320;53.954;9.506;2023-06-14T16:36:51;101565.91;;;22.10;100.00
29315;BME280;16320;53.954;9.506;2023-06-14T16:40:33;101559.88;;;21.87;100.00